sensor_id;sensor_type;location;lat;lon;timestamp;P1;P2;P0
80289;PMS7003;69592;44.804;-0.550;2023-09-30T00:01:17;14.67;11.00;5.33
80289;PMS7003;69592;44.804;-0.550;2023-09-30T00:03:43;12.33;11.00;7.33
80289;PMS7003;69592;44.804;-0.550;2023-09-30T00:06:09;15.33;13.33;8.33
80289;PMS7003;69592;44.804;-0.550;2023-09-30T00:08:34;13.00;9.67;7.00
80289;PMS7003;69592;44.804;-0.550;2023-09-30T00:10:59;15.00;12.00;7.67
80289;PMS7003;69592;44.804;-0.550;2023-09-30T00:13:25;11.00;11.00;8.00
80289;PMS7003;69592;44.804;-0.550;2023-09-30T00:15:50;11.67;11.67;7.67
80289;PMS7003;69592;44.804;-0.550;2023-09-30T00:18:16;9.00;6.67;2.00
80289;PMS7003;69592;44.804;-0.550;2023-09-30T00:20:41;16.00;13.33;8.00
80289;PMS7003;69592;44.804;-0.550;2023-09-30T00:23:07;18.33;15.33;8.00
80289;PMS7003;69592;44.804;-0.550;2023-09-30T00:25:33;11.67;10.33;6.00
80289;PMS7003;69592;44.804;-0.550;2023-09-30T00:27:58;12.00;12.00;8.33
80289;PMS7003;69592;44.804;-0.550;2023-09-30T00:30:24;13.67;12.33;7.00
80289;PMS7003;69592;44.804;-0.550;2023-09-30T00:32:49;12.00;10.67;6.33
80289;PMS7003;69592;44.804;-0.550;2023-09-30T00:35:15;14.00;13.00;8.00
80289;PMS7003;69592;44.804;-0.550;2023-09-30T00:37:41;14.00;12.00;7.33
80289;PMS7003;69592;44.804;-0.550;2023-09-30T00:40:07;8.33;8.33;6.00
80289;PMS7003;69592;44.804;-0.550;2023-09-30T00:42:37;10.00;9.00;6.00
80289;PMS7003;69592;44.804;-0.550;2023-09-30T00:45:06;9.67;8.33;5.00
80289;PMS7003;69592;44.804;-0.550;2023-09-30T00:47:32;12.67;11.00;6.67
80289;PMS7003;69592;44.804;-0.550;2023-09-30T00:49:59;8.67;8.67;5.67
80289;PMS7003;69592;44.804;-0.550;2023-09-30T00:52:24;17.00;8.67;6.00
80289;PMS7003;69592;44.804;-0.550;2023-09-30T00:54:50;14.67;13.67;7.00
80289;PMS7003;69592;44.804;-0.550;2023-09-30T00:57:17;10.67;10.00;5.00
80289;PMS7003;69592;44.804;-0.550;2023-09-30T00:59:45;12.00;9.33;6.00
80289;PMS7003;69592;44.804;-0.550;2023-09-30T01:02:13;9.00;8.00;5.67
80289;PMS7003;69592;44.804;-0.550;2023-09-30T01:04:39;11.33;10.00;6.33
80289;PMS7003;69592;44.804;-0.550;2023-09-30T01:07:05;14.00;10.67;6.00
80289;PMS7003;69592;44.804;-0.550;2023-09-30T01:09:31;11.00;8.00;4.67
80289;PMS7003;69592;44.804;-0.550;2023-09-30T01:11:56;12.33;8.00;5.00
80289;PMS7003;69592;44.804;-0.550;2023-09-30T01:16:50;8.33;8.33;5.67
80289;PMS7003;69592;44.804;-0.550;2023-09-30T01:19:16;9.00;9.00;5.67
80289;PMS7003;69592;44.804;-0.550;2023-09-30T01:21:42;11.33;10.00;6.00
80289;PMS7003;69592;44.804;-0.550;2023-09-30T01:24:13;8.33;7.33;5.00
80289;PMS7003;69592;44.804;-0.550;2023-09-30T01:26:39;14.67;10.67;7.00
80289;PMS7003;69592;44.804;-0.550;2023-09-30T01:29:04;10.33;9.33;5.00
80289;PMS7003;69592;44.804;-0.550;2023-09-30T01:31:29;12.00;8.33;5.67
80289;PMS7003;69592;44.804;-0.550;2023-09-30T01:33:54;11.67;10.00;6.33
80289;PMS7003;69592;44.804;-0.550;2023-09-30T01:36:20;10.33;9.00;6.33
80289;PMS7003;69592;44.804;-0.550;2023-09-30T01:38:46;12.00;10.00;6.67
80289;PMS7003;69592;44.804;-0.550;2023-09-30T01:41:11;13.67;11.33;7.00
80289;PMS7003;69592;44.804;-0.550;2023-09-30T01:43:36;9.00;9.00;6.33
80289;PMS7003;69592;44.804;-0.550;2023-09-30T01:46:02;13.67;11.00;6.00
80289;PMS7003;69592;44.804;-0.550;2023-09-30T01:48:30;12.00;11.00;6.67
80289;PMS7003;69592;44.804;-0.550;2023-09-30T01:50:55;13.00;11.00;7.67
80289;PMS7003;69592;44.804;-0.550;2023-09-30T01:53:20;10.33;9.00;5.33
80289;PMS7003;69592;44.804;-0.550;2023-09-30T01:55:46;11.00;9.00;6.33
80289;PMS7003;69592;44.804;-0.550;2023-09-30T01:58:12;11.67;11.00;7.00
80289;PMS7003;69592;44.804;-0.550;2023-09-30T02:00:38;9.67;9.67;6.00
80289;PMS7003;69592;44.804;-0.550;2023-09-30T02:03:03;7.67;7.67;5.00
80289;PMS7003;69592;44.804;-0.550;2023-09-30T02:05:29;9.00;8.67;5.67
80289;PMS7003;69592;44.804;-0.550;2023-09-30T02:07:54;9.67;8.67;6.00
80289;PMS7003;69592;44.804;-0.550;2023-09-30T02:10:20;11.67;10.33;6.33
80289;PMS7003;69592;44.804;-0.550;2023-09-30T02:12:46;9.00;8.00;7.00
80289;PMS7003;69592;44.804;-0.550;2023-09-30T02:15:12;9.67;8.67;5.67
80289;PMS7003;69592;44.804;-0.550;2023-09-30T02:17:38;13.00;9.00;5.00
80289;PMS7003;69592;44.804;-0.550;2023-09-30T02:20:04;8.33;8.00;6.00
80289;PMS7003;69592;44.804;-0.550;2023-09-30T02:22:32;9.33;8.67;6.00
80289;PMS7003;69592;44.804;-0.550;2023-09-30T02:24:58;9.00;8.00;5.00
80289;PMS7003;69592;44.804;-0.550;2023-09-30T02:27:23;10.33;8.33;5.00
80289;PMS7003;69592;44.804;-0.550;2023-09-30T02:29:49;11.33;9.00;7.00
80289;PMS7003;69592;44.804;-0.550;2023-09-30T02:32:14;9.33;9.33;6.00
80289;PMS7003;69592;44.804;-0.550;2023-09-30T02:34:39;14.67;10.00;6.00
80289;PMS7003;69592;44.804;-0.550;2023-09-30T02:37:05;11.67;9.67;7.00
80289;PMS7003;69592;44.804;-0.550;2023-09-30T02:39:30;11.33;9.00;5.00
80289;PMS7003;69592;44.804;-0.550;2023-09-30T02:41:56;9.67;7.33;5.00
80289;PMS7003;69592;44.804;-0.550;2023-09-30T02:44:21;11.00;9.67;5.00
80289;PMS7003;69592;44.804;-0.550;2023-09-30T02:46:47;9.00;7.33;5.33
80289;PMS7003;69592;44.804;-0.550;2023-09-30T02:49:12;8.67;8.00;5.00
80289;PMS7003;69592;44.804;-0.550;2023-09-30T02:51:37;9.33;9.00;6.00
80289;PMS7003;69592;44.804;-0.550;2023-09-30T02:54:03;10.00;8.00;5.00
80289;PMS7003;69592;44.804;-0.550;2023-09-30T02:56:29;13.67;11.67;7.33
80289;PMS7003;69592;44.804;-0.550;2023-09-30T02:58:55;14.33;10.33;7.33
80289;PMS7003;69592;44.804;-0.550;2023-09-30T03:01:21;10.67;10.67;7.33
80289;PMS7003;69592;44.804;-0.550;2023-09-30T03:03:46;14.67;11.33;7.67
80289;PMS7003;69592;44.804;-0.550;2023-09-30T03:06:12;16.00;11.33;6.00
80289;PMS7003;69592;44.804;-0.550;2023-09-30T03:08:37;11.67;9.33;7.00
80289;PMS7003;69592;44.804;-0.550;2023-09-30T03:11:03;13.67;12.67;7.00
80289;PMS7003;69592;44.804;-0.550;2023-09-30T03:13:29;11.33;9.33;6.33
80289;PMS7003;69592;44.804;-0.550;2023-09-30T03:15:55;10.00;9.67;6.33
80289;PMS7003;69592;44.804;-0.550;2023-09-30T03:18:21;9.33;9.33;6.00
80289;PMS7003;69592;44.804;-0.550;2023-09-30T03:20:51;14.67;11.33;6.00
80289;PMS7003;69592;44.804;-0.550;2023-09-30T03:23:21;15.67;10.67;6.00
80289;PMS7003;69592;44.804;-0.550;2023-09-30T03:25:47;14.33;13.00;6.00
80289;PMS7003;69592;44.804;-0.550;2023-09-30T03:28:13;10.67;8.00;4.67
80289;PMS7003;69592;44.804;-0.550;2023-09-30T03:30:40;8.67;5.67;2.00
80289;PMS7003;69592;44.804;-0.550;2023-09-30T03:33:05;10.00;10.00;7.00
80289;PMS7003;69592;44.804;-0.550;2023-09-30T03:35:30;14.00;10.67;6.33
80289;PMS7003;69592;44.804;-0.550;2023-09-30T03:37:57;13.00;9.67;6.00
80289;PMS7003;69592;44.804;-0.550;2023-09-30T03:40:23;12.67;10.00;6.33
80289;PMS7003;69592;44.804;-0.550;2023-09-30T03:42:53;14.33;9.67;6.33
80289;PMS7003;69592;44.804;-0.550;2023-09-30T03:45:19;8.00;8.00;5.00
80289;PMS7003;69592;44.804;-0.550;2023-09-30T03:47:44;11.00;9.00;5.67
80289;PMS7003;69592;44.804;-0.550;2023-09-30T03:50:10;10.33;8.00;5.00
80289;PMS7003;69592;44.804;-0.550;2023-09-30T03:52:40;11.67;9.67;6.00
80289;PMS7003;69592;44.804;-0.550;2023-09-30T03:55:09;12.00;9.00;6.00
80289;PMS7003;69592;44.804;-0.550;2023-09-30T03:57:37;12.33;9.67;5.33
80289;PMS7003;69592;44.804;-0.550;2023-09-30T04:00:02;10.33;8.67;6.00
80289;PMS7003;69592;44.804;-0.550;2023-09-30T04:02:31;10.33;9.00;6.33
80289;PMS7003;69592;44.804;-0.550;2023-09-30T04:05:00;12.00;10.33;7.00
80289;PMS7003;69592;44.804;-0.550;2023-09-30T04:07:28;13.00;13.00;5.33
80289;PMS7003;69592;44.804;-0.550;2023-09-30T04:09:54;9.00;9.00;6.00
80289;PMS7003;69592;44.804;-0.550;2023-09-30T04:12:20;12.67;9.00;6.00
80289;PMS7003;69592;44.804;-0.550;2023-09-30T04:14:48;10.33;7.33;5.00
80289;PMS7003;69592;44.804;-0.550;2023-09-30T04:17:14;9.67;8.33;5.33
80289;PMS7003;69592;44.804;-0.550;2023-09-30T04:19:39;11.33;8.67;6.67
80289;PMS7003;69592;44.804;-0.550;2023-09-30T04:22:05;9.33;7.00;5.00
80289;PMS7003;69592;44.804;-0.550;2023-09-30T04:24:30;10.33;7.67;5.33
80289;PMS7003;69592;44.804;-0.550;2023-09-30T04:26:55;8.33;8.00;3.33
80289;PMS7003;69592;44.804;-0.550;2023-09-30T04:29:27;10.67;9.33;6.00
80289;PMS7003;69592;44.804;-0.550;2023-09-30T04:31:52;8.00;6.00;3.00
80289;PMS7003;69592;44.804;-0.550;2023-09-30T04:34:17;10.67;10.67;7.00
80289;PMS7003;69592;44.804;-0.550;2023-09-30T04:36:43;12.67;9.00;4.67
80289;PMS7003;69592;44.804;-0.550;2023-09-30T04:39:08;9.33;9.33;6.00
80289;PMS7003;69592;44.804;-0.550;2023-09-30T04:41:35;9.67;9.67;6.33
80289;PMS7003;69592;44.804;-0.550;2023-09-30T04:44:01;11.33;10.67;6.67
80289;PMS7003;69592;44.804;-0.550;2023-09-30T04:46:26;8.00;8.00;5.00
80289;PMS7003;69592;44.804;-0.550;2023-09-30T04:48:52;13.33;11.33;5.67
80289;PMS7003;69592;44.804;-0.550;2023-09-30T04:51:18;11.33;9.00;7.00
80289;PMS7003;69592;44.804;-0.550;2023-09-30T04:53:44;11.33;8.33;6.00
80289;PMS7003;69592;44.804;-0.550;2023-09-30T04:56:11;11.33;9.67;6.67
80289;PMS7003;69592;44.804;-0.550;2023-09-30T04:58:37;9.00;7.67;4.67
80289;PMS7003;69592;44.804;-0.550;2023-09-30T05:01:03;9.67;8.00;6.00
80289;PMS7003;69592;44.804;-0.550;2023-09-30T05:03:28;10.00;9.33;5.00
80289;PMS7003;69592;44.804;-0.550;2023-09-30T05:05:53;8.00;7.00;6.00
80289;PMS7003;69592;44.804;-0.550;2023-09-30T05:08:21;8.00;8.00;4.33
80289;PMS7003;69592;44.804;-0.550;2023-09-30T05:10:47;11.67;11.67;6.00
80289;PMS7003;69592;44.804;-0.550;2023-09-30T05:13:13;11.67;8.67;6.00
80289;PMS7003;69592;44.804;-0.550;2023-09-30T05:15:38;10.33;8.67;6.00
80289;PMS7003;69592;44.804;-0.550;2023-09-30T05:18:04;9.33;8.00;6.00
80289;PMS7003;69592;44.804;-0.550;2023-09-30T05:20:30;8.33;7.67;5.00
80289;PMS7003;69592;44.804;-0.550;2023-09-30T05:22:55;14.33;11.33;7.00
80289;PMS7003;69592;44.804;-0.550;2023-09-30T05:25:21;12.00;7.33;5.00
80289;PMS7003;69592;44.804;-0.550;2023-09-30T05:27:51;12.67;9.33;6.33
80289;PMS7003;69592;44.804;-0.550;2023-09-30T05:30:16;10.67;8.00;5.67
80289;PMS7003;69592;44.804;-0.550;2023-09-30T05:32:45;9.00;7.67;5.67
80289;PMS7003;69592;44.804;-0.550;2023-09-30T05:35:11;9.33;8.00;6.00
80289;PMS7003;69592;44.804;-0.550;2023-09-30T05:37:41;8.33;8.33;5.00
80289;PMS7003;69592;44.804;-0.550;2023-09-30T05:40:07;6.00;6.00;5.00
80289;PMS7003;69592;44.804;-0.550;2023-09-30T05:42:42;11.00;8.67;6.00
80289;PMS7003;69592;44.804;-0.550;2023-09-30T05:45:09;10.67;8.33;6.00
80289;PMS7003;69592;44.804;-0.550;2023-09-30T05:47:37;9.67;8.67;5.00
80289;PMS7003;69592;44.804;-0.550;2023-09-30T05:50:03;14.67;11.00;5.00
80289;PMS7003;69592;44.804;-0.550;2023-09-30T05:52:31;13.00;10.33;6.67
80289;PMS7003;69592;44.804;-0.550;2023-09-30T05:54:57;10.67;9.00;7.00
80289;PMS7003;69592;44.804;-0.550;2023-09-30T05:57:22;11.00;9.33;6.00
80289;PMS7003;69592;44.804;-0.550;2023-09-30T05:59:48;12.33;11.33;7.00
80289;PMS7003;69592;44.804;-0.550;2023-09-30T06:02:14;14.00;9.00;6.00
80289;PMS7003;69592;44.804;-0.550;2023-09-30T06:04:40;12.00;10.33;5.67
80289;PMS7003;69592;44.804;-0.550;2023-09-30T06:07:05;11.33;10.00;7.00
80289;PMS7003;69592;44.804;-0.550;2023-09-30T06:09:31;12.67;11.67;6.00
80289;PMS7003;69592;44.804;-0.550;2023-09-30T06:11:56;17.00;11.33;6.67
80289;PMS7003;69592;44.804;-0.550;2023-09-30T06:14:22;13.67;8.33;5.33
80289;PMS7003;69592;44.804;-0.550;2023-09-30T06:16:47;13.00;10.00;6.00
80289;PMS7003;69592;44.804;-0.550;2023-09-30T06:19:12;8.00;7.67;4.67
80289;PMS7003;69592;44.804;-0.550;2023-09-30T06:21:38;11.67;8.67;4.67
80289;PMS7003;69592;44.804;-0.550;2023-09-30T06:24:04;8.00;7.00;4.33
80289;PMS7003;69592;44.804;-0.550;2023-09-30T06:26:30;6.33;6.33;4.67
80289;PMS7003;69592;44.804;-0.550;2023-09-30T06:28:55;9.67;9.00;6.00
80289;PMS7003;69592;44.804;-0.550;2023-09-30T06:31:21;8.33;8.00;4.67
80289;PMS7003;69592;44.804;-0.550;2023-09-30T06:33:48;9.00;9.00;6.33
80289;PMS7003;69592;44.804;-0.550;2023-09-30T06:36:14;12.00;7.67;5.33
80289;PMS7003;69592;44.804;-0.550;2023-09-30T06:38:39;11.67;8.00;6.00
80289;PMS7003;69592;44.804;-0.550;2023-09-30T06:41:07;13.67;10.33;6.33
80289;PMS7003;69592;44.804;-0.550;2023-09-30T06:43:33;9.67;8.33;5.33
80289;PMS7003;69592;44.804;-0.550;2023-09-30T06:46:04;10.67;10.33;7.00
80289;PMS7003;69592;44.804;-0.550;2023-09-30T06:48:32;9.00;9.00;5.00
80289;PMS7003;69592;44.804;-0.550;2023-09-30T06:50:57;13.00;9.00;5.33
80289;PMS7003;69592;44.804;-0.550;2023-09-30T06:53:24;13.00;11.00;7.00
80289;PMS7003;69592;44.804;-0.550;2023-09-30T06:55:49;10.33;10.00;6.00
80289;PMS7003;69592;44.804;-0.550;2023-09-30T06:58:16;7.67;7.67;5.33
80289;PMS7003;69592;44.804;-0.550;2023-09-30T07:00:45;9.00;8.00;4.00
80289;PMS7003;69592;44.804;-0.550;2023-09-30T07:03:11;10.33;9.67;6.00
80289;PMS7003;69592;44.804;-0.550;2023-09-30T07:05:36;11.33;9.00;6.33
80289;PMS7003;69592;44.804;-0.550;2023-09-30T07:08:02;11.33;10.00;6.00
80289;PMS7003;69592;44.804;-0.550;2023-09-30T07:10:28;12.00;9.00;6.00
80289;PMS7003;69592;44.804;-0.550;2023-09-30T07:12:57;12.00;10.00;5.67
80289;PMS7003;69592;44.804;-0.550;2023-09-30T07:15:22;12.00;9.67;6.67
80289;PMS7003;69592;44.804;-0.550;2023-09-30T07:17:48;9.00;9.00;6.00
80289;PMS7003;69592;44.804;-0.550;2023-09-30T07:20:13;9.00;8.00;5.00
80289;PMS7003;69592;44.804;-0.550;2023-09-30T07:22:40;10.67;9.67;6.00
80289;PMS7003;69592;44.804;-0.550;2023-09-30T07:25:06;10.00;10.00;6.33
80289;PMS7003;69592;44.804;-0.550;2023-09-30T07:27:32;10.00;9.33;6.00
80289;PMS7003;69592;44.804;-0.550;2023-09-30T07:29:58;12.67;12.00;6.00
80289;PMS7003;69592;44.804;-0.550;2023-09-30T07:32:24;10.67;9.00;6.00
80289;PMS7003;69592;44.804;-0.550;2023-09-30T07:34:50;10.33;9.00;6.00
80289;PMS7003;69592;44.804;-0.550;2023-09-30T07:37:16;9.33;9.00;5.00
80289;PMS7003;69592;44.804;-0.550;2023-09-30T07:39:45;8.00;7.00;5.00
80289;PMS7003;69592;44.804;-0.550;2023-09-30T07:42:11;16.67;9.33;6.33
80289;PMS7003;69592;44.804;-0.550;2023-09-30T07:44:36;9.33;6.67;5.00
80289;PMS7003;69592;44.804;-0.550;2023-09-30T07:47:05;8.67;8.00;5.00
80289;PMS7003;69592;44.804;-0.550;2023-09-30T07:49:34;9.00;8.33;6.00
80289;PMS7003;69592;44.804;-0.550;2023-09-30T07:51:59;10.33;7.00;5.00
80289;PMS7003;69592;44.804;-0.550;2023-09-30T07:54:25;7.33;7.33;4.33
80289;PMS7003;69592;44.804;-0.550;2023-09-30T07:56:51;6.00;6.00;4.33
80289;PMS7003;69592;44.804;-0.550;2023-09-30T07:59:16;5.00;5.00;3.00
80289;PMS7003;69592;44.804;-0.550;2023-09-30T08:01:42;13.33;9.00;5.00
80289;PMS7003;69592;44.804;-0.550;2023-09-30T08:04:08;11.00;7.67;5.00
80289;PMS7003;69592;44.804;-0.550;2023-09-30T08:06:33;10.33;9.00;6.00
80289;PMS7003;69592;44.804;-0.550;2023-09-30T08:08:59;8.67;7.33;4.67
80289;PMS7003;69592;44.804;-0.550;2023-09-30T08:11:24;8.00;6.33;5.00
80289;PMS7003;69592;44.804;-0.550;2023-09-30T08:13:55;9.33;7.00;5.00
80289;PMS7003;69592;44.804;-0.550;2023-09-30T08:16:21;10.00;8.00;5.33
80289;PMS7003;69592;44.804;-0.550;2023-09-30T08:18:46;7.33;7.00;5.00
80289;PMS7003;69592;44.804;-0.550;2023-09-30T08:21:12;9.67;7.00;4.00
80289;PMS7003;69592;44.804;-0.550;2023-09-30T08:23:37;10.00;6.00;4.33
80289;PMS7003;69592;44.804;-0.550;2023-09-30T08:26:04;8.67;7.00;5.00
80289;PMS7003;69592;44.804;-0.550;2023-09-30T08:28:30;8.00;7.00;5.00
80289;PMS7003;69592;44.804;-0.550;2023-09-30T08:31:01;9.33;9.33;4.33
80289;PMS7003;69592;44.804;-0.550;2023-09-30T08:33:27;11.00;7.00;4.00
80289;PMS7003;69592;44.804;-0.550;2023-09-30T08:35:55;10.00;7.67;5.00
80289;PMS7003;69592;44.804;-0.550;2023-09-30T08:38:21;9.00;7.67;4.67
80289;PMS7003;69592;44.804;-0.550;2023-09-30T08:40:46;8.67;8.67;6.00
80289;PMS7003;69592;44.804;-0.550;2023-09-30T08:43:16;8.75;8.00;5.00
80289;PMS7003;69592;44.804;-0.550;2023-09-30T08:45:52;8.25;7.00;5.00
80289;PMS7003;69592;44.804;-0.550;2023-09-30T08:48:19;8.25;6.75;4.50
80289;PMS7003;69592;44.804;-0.550;2023-09-30T08:50:48;9.00;7.25;5.00
80289;PMS7003;69592;44.804;-0.550;2023-09-30T08:53:14;8.75;8.00;4.00
80289;PMS7003;69592;44.804;-0.550;2023-09-30T08:55:41;6.00;6.00;3.00
80289;PMS7003;69592;44.804;-0.550;2023-09-30T08:58:10;8.25;7.75;5.50
80289;PMS7003;69592;44.804;-0.550;2023-09-30T09:00:37;7.00;7.00;4.00
80289;PMS7003;69592;44.804;-0.550;2023-09-30T09:03:03;5.75;5.75;4.00
80289;PMS7003;69592;44.804;-0.550;2023-09-30T09:05:30;5.75;5.75;3.25
80289;PMS7003;69592;44.804;-0.550;2023-09-30T09:07:56;4.75;2.00;0.75
80289;PMS7003;69592;44.804;-0.550;2023-09-30T09:10:21;6.00;6.00;4.00
80289;PMS7003;69592;44.804;-0.550;2023-09-30T09:12:54;7.00;6.75;4.75
80289;PMS7003;69592;44.804;-0.550;2023-09-30T09:15:23;4.75;4.00;2.25
80289;PMS7003;69592;44.804;-0.550;2023-09-30T09:17:53;10.75;6.50;4.25
80289;PMS7003;69592;44.804;-0.550;2023-09-30T09:20:20;10.75;6.75;4.25
80289;PMS7003;69592;44.804;-0.550;2023-09-30T09:22:51;5.50;5.50;3.25
80289;PMS7003;69592;44.804;-0.550;2023-09-30T09:25:19;6.00;5.00;4.00
80289;PMS7003;69592;44.804;-0.550;2023-09-30T09:27:48;7.00;7.00;4.00
80289;PMS7003;69592;44.804;-0.550;2023-09-30T09:32:39;3.75;3.75;3.00
80289;PMS7003;69592;44.804;-0.550;2023-09-30T09:35:04;2.25;2.25;1.50
80289;PMS7003;69592;44.804;-0.550;2023-09-30T09:37:32;6.00;4.25;3.00
80289;PMS7003;69592;44.804;-0.550;2023-09-30T09:39:58;5.75;3.75;2.50
80289;PMS7003;69592;44.804;-0.550;2023-09-30T09:42:24;5.25;4.75;2.75
80289;PMS7003;69592;44.804;-0.550;2023-09-30T09:44:57;5.25;4.00;3.00
80289;PMS7003;69592;44.804;-0.550;2023-09-30T09:47:27;6.25;5.25;3.50
80289;PMS7003;69592;44.804;-0.550;2023-09-30T09:49:54;5.40;5.40;2.80
80289;PMS7003;69592;44.804;-0.550;2023-09-30T09:52:22;0.00;0.00;0.00
80289;PMS7003;69592;44.804;-0.550;2023-09-30T09:54:48;4.75;3.75;2.00
80289;PMS7003;69592;44.804;-0.550;2023-09-30T09:57:16;3.60;2.60;1.80
80289;PMS7003;69592;44.804;-0.550;2023-09-30T09:59:44;4.80;4.20;2.40
80289;PMS7003;69592;44.804;-0.550;2023-09-30T10:02:13;6.40;4.80;3.80
80289;PMS7003;69592;44.804;-0.550;2023-09-30T10:04:41;5.75;3.00;2.00
80289;PMS7003;69592;44.804;-0.550;2023-09-30T10:07:15;4.50;4.50;4.00
80289;PMS7003;69592;44.804;-0.550;2023-09-30T10:09:44;2.60;2.60;2.00
80289;PMS7003;69592;44.804;-0.550;2023-09-30T10:12:12;4.40;3.20;2.00
80289;PMS7003;69592;44.804;-0.550;2023-09-30T10:14:40;3.40;1.80;0.00
80289;PMS7003;69592;44.804;-0.550;2023-09-30T10:17:05;4.50;4.00;3.00
80289;PMS7003;69592;44.804;-0.550;2023-09-30T10:19:30;3.75;3.75;2.75
80289;PMS7003;69592;44.804;-0.550;2023-09-30T10:24:41;3.00;2.00;2.00
80289;PMS7003;69592;44.804;-0.550;2023-09-30T10:29:47;4.00;3.20;3.00
80289;PMS7003;69592;44.804;-0.550;2023-09-30T10:32:22;3.00;3.00;2.00
80289;PMS7003;69592;44.804;-0.550;2023-09-30T10:34:48;3.00;3.00;2.00
80289;PMS7003;69592;44.804;-0.550;2023-09-30T10:37:20;4.20;4.20;3.00
80289;PMS7003;69592;44.804;-0.550;2023-09-30T10:39:57;6.60;3.80;2.00
80289;PMS7003;69592;44.804;-0.550;2023-09-30T10:45:32;3.80;2.60;1.80
80289;PMS7003;69592;44.804;-0.550;2023-09-30T10:50:59;5.40;5.40;4.20
80289;PMS7003;69592;44.804;-0.550;2023-09-30T10:53:39;3.60;3.60;2.60
80289;PMS7003;69592;44.804;-0.550;2023-09-30T10:56:07;3.40;2.20;1.40
80289;PMS7003;69592;44.804;-0.550;2023-09-30T10:58:39;6.00;4.75;4.00
80289;PMS7003;69592;44.804;-0.550;2023-09-30T11:01:08;2.20;2.20;2.00
80289;PMS7003;69592;44.804;-0.550;2023-09-30T11:03:34;1.40;1.20;0.20
80289;PMS7003;69592;44.804;-0.550;2023-09-30T11:06:00;7.00;6.00;4.00
80289;PMS7003;69592;44.804;-0.550;2023-09-30T11:08:25;5.00;5.00;2.75
80289;PMS7003;69592;44.804;-0.550;2023-09-30T11:10:54;4.60;3.60;2.40
80289;PMS7003;69592;44.804;-0.550;2023-09-30T11:13:21;7.40;5.00;3.40
80289;PMS7003;69592;44.804;-0.550;2023-09-30T11:15:47;10.00;7.75;5.50
80289;PMS7003;69592;44.804;-0.550;2023-09-30T11:18:16;3.00;3.00;2.25
80289;PMS7003;69592;44.804;-0.550;2023-09-30T11:20:43;7.00;6.80;6.00
80289;PMS7003;69592;44.804;-0.550;2023-09-30T11:23:10;5.20;4.00;3.00
80289;PMS7003;69592;44.804;-0.550;2023-09-30T11:25:36;4.20;4.20;2.80
80289;PMS7003;69592;44.804;-0.550;2023-09-30T11:28:15;4.00;3.20;2.40
80289;PMS7003;69592;44.804;-0.550;2023-09-30T11:33:23;3.60;3.00;2.40
80289;PMS7003;69592;44.804;-0.550;2023-09-30T11:38:28;5.40;3.20;2.40
80289;PMS7003;69592;44.804;-0.550;2023-09-30T11:41:01;3.60;3.60;2.00
80289;PMS7003;69592;44.804;-0.550;2023-09-30T11:43:30;5.60;3.00;2.60
80289;PMS7003;69592;44.804;-0.550;2023-09-30T11:48:36;4.60;3.00;2.60
80289;PMS7003;69592;44.804;-0.550;2023-09-30T11:51:02;3.20;3.20;2.00
80289;PMS7003;69592;44.804;-0.550;2023-09-30T11:53:31;3.00;3.00;2.00
80289;PMS7003;69592;44.804;-0.550;2023-09-30T11:56:00;5.00;4.00;3.00
80289;PMS7003;69592;44.804;-0.550;2023-09-30T11:58:28;2.00;2.00;2.00
80289;PMS7003;69592;44.804;-0.550;2023-09-30T12:00:54;4.00;4.00;3.00
80289;PMS7003;69592;44.804;-0.550;2023-09-30T12:03:22;2.60;2.60;1.80
80289;PMS7003;69592;44.804;-0.550;2023-09-30T12:05:48;3.00;3.00;2.25
80289;PMS7003;69592;44.804;-0.550;2023-09-30T12:08:14;3.25;3.00;2.00
80289;PMS7003;69592;44.804;-0.550;2023-09-30T12:10:39;3.00;3.00;2.00
80289;PMS7003;69592;44.804;-0.550;2023-09-30T12:13:05;3.00;3.00;2.00
80289;PMS7003;69592;44.804;-0.550;2023-09-30T12:15:30;3.25;3.25;2.25
80289;PMS7003;69592;44.804;-0.550;2023-09-30T12:17:56;4.00;4.00;2.50
80289;PMS7003;69592;44.804;-0.550;2023-09-30T12:20:21;3.25;3.25;3.00
80289;PMS7003;69592;44.804;-0.550;2023-09-30T12:22:47;2.00;2.00;1.00
80289;PMS7003;69592;44.804;-0.550;2023-09-30T12:25:12;4.00;4.00;3.00
80289;PMS7003;69592;44.804;-0.550;2023-09-30T12:27:38;4.00;2.50;2.00
80289;PMS7003;69592;44.804;-0.550;2023-09-30T12:30:05;3.00;3.00;2.80
80289;PMS7003;69592;44.804;-0.550;2023-09-30T12:32:32;2.80;1.80;1.20
80289;PMS7003;69592;44.804;-0.550;2023-09-30T12:34:58;4.00;3.00;2.40
80289;PMS7003;69592;44.804;-0.550;2023-09-30T12:37:23;3.75;3.00;2.00
80289;PMS7003;69592;44.804;-0.550;2023-09-30T12:39:49;3.00;3.00;2.50
80289;PMS7003;69592;44.804;-0.550;2023-09-30T12:42:14;4.00;2.50;2.00
80289;PMS7003;69592;44.804;-0.550;2023-09-30T12:44:41;4.00;3.80;2.80
80289;PMS7003;69592;44.804;-0.550;2023-09-30T12:47:06;3.00;3.00;1.75
80289;PMS7003;69592;44.804;-0.550;2023-09-30T12:49:31;5.25;4.00;2.25
80289;PMS7003;69592;44.804;-0.550;2023-09-30T12:51:57;4.75;3.75;2.00
80289;PMS7003;69592;44.804;-0.550;2023-09-30T12:54:24;3.60;3.00;2.40
80289;PMS7003;69592;44.804;-0.550;2023-09-30T12:56:50;1.80;1.80;1.00
80289;PMS7003;69592;44.804;-0.550;2023-09-30T12:59:16;1.75;1.75;1.25
80289;PMS7003;69592;44.804;-0.550;2023-09-30T13:01:43;3.00;2.00;1.80
80289;PMS7003;69592;44.804;-0.550;2023-09-30T13:04:09;4.60;3.00;2.00
80289;PMS7003;69592;44.804;-0.550;2023-09-30T13:06:34;3.00;3.00;2.50
80289;PMS7003;69592;44.804;-0.550;2023-09-30T13:09:00;5.00;5.00;3.75
80289;PMS7003;69592;44.804;-0.550;2023-09-30T13:11:28;3.40;2.80;2.00
80289;PMS7003;69592;44.804;-0.550;2023-09-30T13:13:54;4.25;2.50;2.00
80289;PMS7003;69592;44.804;-0.550;2023-09-30T13:16:20;1.60;1.60;0.80
80289;PMS7003;69592;44.804;-0.550;2023-09-30T13:18:47;1.80;1.80;1.80
80289;PMS7003;69592;44.804;-0.550;2023-09-30T13:21:12;4.25;4.25;3.00
80289;PMS7003;69592;44.804;-0.550;2023-09-30T13:23:38;5.00;3.25;2.00
80289;PMS7003;69592;44.804;-0.550;2023-09-30T13:26:03;3.00;3.00;2.00
80289;PMS7003;69592;44.804;-0.550;2023-09-30T13:28:29;3.50;3.50;2.50
80289;PMS7003;69592;44.804;-0.550;2023-09-30T13:30:54;4.00;4.00;3.25
80289;PMS7003;69592;44.804;-0.550;2023-09-30T13:33:20;2.75;2.75;2.00
80289;PMS7003;69592;44.804;-0.550;2023-09-30T13:35:46;2.75;2.75;2.00
80289;PMS7003;69592;44.804;-0.550;2023-09-30T13:38:11;4.00;4.00;2.25
80289;PMS7003;69592;44.804;-0.550;2023-09-30T13:40:37;2.25;2.25;2.00
80289;PMS7003;69592;44.804;-0.550;2023-09-30T13:43:06;5.00;4.00;3.00
80289;PMS7003;69592;44.804;-0.550;2023-09-30T13:45:31;3.40;3.40;2.20
80289;PMS7003;69592;44.804;-0.550;2023-09-30T13:47:56;3.00;3.00;2.25
80289;PMS7003;69592;44.804;-0.550;2023-09-30T13:50:22;3.00;3.00;2.00
80289;PMS7003;69592;44.804;-0.550;2023-09-30T13:52:47;3.50;3.00;3.00
80289;PMS7003;69592;44.804;-0.550;2023-09-30T13:55:13;4.00;3.00;2.25
80289;PMS7003;69592;44.804;-0.550;2023-09-30T13:57:44;1.00;1.00;0.60
80289;PMS7003;69592;44.804;-0.550;2023-09-30T14:00:13;2.00;2.00;1.40
80289;PMS7003;69592;44.804;-0.550;2023-09-30T14:02:38;3.00;3.00;1.20
80289;PMS7003;69592;44.804;-0.550;2023-09-30T14:05:04;3.00;3.00;3.00
80289;PMS7003;69592;44.804;-0.550;2023-09-30T14:07:32;3.80;3.80;2.80
80289;PMS7003;69592;44.804;-0.550;2023-09-30T14:09:58;4.00;3.75;2.75
80289;PMS7003;69592;44.804;-0.550;2023-09-30T14:12:23;3.00;3.00;2.00
80289;PMS7003;69592;44.804;-0.550;2023-09-30T14:14:49;4.25;4.25;3.25
80289;PMS7003;69592;44.804;-0.550;2023-09-30T14:17:16;2.40;1.80;1.00
80289;PMS7003;69592;44.804;-0.550;2023-09-30T14:19:42;2.00;2.00;2.00
80289;PMS7003;69592;44.804;-0.550;2023-09-30T14:22:07;2.00;2.00;2.00
80289;PMS7003;69592;44.804;-0.550;2023-09-30T14:24:33;4.00;2.75;1.00